Time;durP1;ratioP1;P1;durP2;ratioP2;P2;SDS_P1;SDS_P2;PMS_P1;PMS_P2;Temp;Humidity;BMP_temperature;BMP_pressure;BME280_temperature;BME280_humidity;BME280_pressure;Samples;Min_cycle;Max_cycle;Signal;HPM_P1;HPM_P2
2023/12/19 00:00:08;;;;;;;15.52;8.27;;;4.90;99.90;;;;;;5045041;28;20029;-63
2023/12/19 00:02:34;;;;;;;18.33;9.02;;;4.90;99.90;;;;;;5050118;28;20536;-63
2023/12/19 00:04:59;;;;;;;15.18;8.10;;;5.00;99.90;;;;;;5043091;28;20041;-63
2023/12/19 00:07:27;;;;;;;15.85;8.45;;;5.00;99.90;;;;;;5052079;28;20059;-63
2023/12/19 00:09:53;;;;;;;18.35;9.60;;;4.90;99.90;;;;;;5050591;28;20049;-63
2023/12/19 00:12:18;;;;;;;18.48;9.35;;;4.90;99.90;;;;;;5049498;28;20060;-63
2023/12/19 00:14:44;;;;;;;16.70;9.13;;;5.00;99.90;;;;;;5046713;28;20033;-61
2023/12/19 00:17:09;;;;;;;17.33;8.60;;;5.00;99.90;;;;;;5053063;28;20399;-62
2023/12/19 00:19:34;;;;;;;15.30;8.07;;;4.90;99.90;;;;;;5043082;28;20487;-63
2023/12/19 00:22:00;;;;;;;22.67;9.52;;;4.90;99.90;;;;;;5049578;28;20040;-62
2023/12/19 00:24:25;;;;;;;16.58;8.68;;;4.90;99.90;;;;;;5049463;28;20040;-63
2023/12/19 00:26:51;;;;;;;17.73;8.77;;;4.90;99.90;;;;;;5048072;28;20047;-63
2023/12/19 00:29:16;;;;;;;16.30;8.35;;;4.90;99.90;;;;;;5048565;28;20045;-61
2023/12/19 00:31:43;;;;;;;17.23;9.10;;;5.00;99.90;;;;;;5048755;28;20036;-62
2023/12/19 00:34:08;;;;;;;16.42;8.20;;;5.00;99.90;;;;;;5050025;28;20035;-61
2023/12/19 00:36:34;;;;;;;16.83;8.38;;;5.00;99.90;;;;;;5049835;28;20030;-62
2023/12/19 00:38:59;;;;;;;15.95;8.73;;;5.00;99.90;;;;;;5046010;28;20024;-62
2023/12/19 00:41:25;;;;;;;17.02;8.55;;;5.00;99.90;;;;;;5048674;28;20028;-63
2023/12/19 00:43:50;;;;;;;15.45;8.25;;;5.10;99.90;;;;;;5048021;28;20033;-62
2023/12/19 00:46:16;;;;;;;17.33;8.80;;;5.10;99.90;;;;;;5051876;28;20129;-62
2023/12/19 00:48:41;;;;;;;14.70;8.07;;;5.10;99.90;;;;;;5051594;28;20036;-62
2023/12/19 00:51:10;;;;;;;16.17;8.60;;;5.10;99.90;;;;;;5049447;28;20033;-63
2023/12/19 00:53:36;;;;;;;16.02;8.15;;;5.10;99.90;;;;;;5055427;28;20037;-63
2023/12/19 00:56:04;;;;;;;14.63;8.45;;;5.10;99.90;;;;;;5054996;28;20035;-62
2023/12/19 00:58:30;;;;;;;16.55;8.57;;;5.20;99.90;;;;;;5050146;28;20021;-61
2023/12/19 01:00:55;;;;;;;13.38;7.60;;;5.20;99.90;;;;;;5043382;28;20557;-60
2023/12/19 01:03:21;;;;;;;15.70;8.40;;;5.20;99.90;;;;;;5050682;28;20606;-62
2023/12/19 01:05:46;;;;;;;15.18;8.15;;;5.10;99.90;;;;;;5048939;28;20479;-62
2023/12/19 01:08:12;;;;;;;22.83;8.38;;;5.10;99.90;;;;;;5049739;28;20284;-62
2023/12/19 01:10:37;;;;;;;15.52;8.57;;;5.20;99.90;;;;;;5046116;28;20090;-61
2023/12/19 01:13:03;;;;;;;14.57;7.88;;;5.20;99.90;;;;;;5050669;28;20046;-62
2023/12/19 01:15:28;;;;;;;13.65;7.85;;;5.20;99.90;;;;;;5050944;28;20033;-63
2023/12/19 01:17:54;;;;;;;16.08;7.75;;;5.30;99.90;;;;;;5052461;28;20016;-63
2023/12/19 01:20:19;;;;;;;17.70;7.63;;;5.30;99.90;;;;;;5041169;28;20560;-62
2023/12/19 01:22:45;;;;;;;12.95;7.78;;;5.30;99.90;;;;;;5061172;28;20029;-63
2023/12/19 01:25:10;;;;;;;15.32;7.70;;;5.30;99.90;;;;;;5048287;28;20037;-62
2023/12/19 01:27:36;;;;;;;15.10;7.28;;;5.30;99.90;;;;;;5047482;28;20390;-63
2023/12/19 01:30:01;;;;;;;16.95;8.18;;;5.30;99.90;;;;;;5048082;28;20056;-62
2023/12/19 01:32:27;;;;;;;14.40;8.02;;;5.30;99.90;;;;;;5052504;28;20031;-64
2023/12/19 01:34:53;;;;;;;18.77;8.73;;;5.30;99.90;;;;;;5051527;28;20029;-63
2023/12/19 01:37:18;;;;;;;15.13;8.43;;;5.30;99.90;;;;;;5052969;28;20024;-62
2023/12/19 01:39:44;;;;;;;22.02;9.07;;;5.40;99.90;;;;;;5049663;28;20021;-63
2023/12/19 01:42:09;;;;;;;17.75;8.80;;;5.40;99.90;;;;;;5046193;28;20025;-60
2023/12/19 01:44:35;;;;;;;18.55;9.23;;;5.40;99.90;;;;;;5045456;28;20116;-61
2023/12/19 01:47:01;;;;;;;21.23;9.85;;;5.40;99.90;;;;;;5049258;28;20029;-62
2023/12/19 01:49:27;;;;;;;20.50;8.90;;;5.40;99.90;;;;;;5047959;28;20082;-61
2023/12/19 01:51:52;;;;;;;17.88;9.07;;;5.40;99.90;;;;;;5053183;28;20044;-64
2023/12/19 01:54:19;;;;;;;19.48;8.73;;;5.40;99.90;;;;;;5049035;28;20036;-62
2023/12/19 01:56:45;;;;;;;15.55;8.13;;;5.50;99.90;;;;;;5047366;28;20442;-64
2023/12/19 01:59:12;;;;;;;17.70;8.43;;;5.50;99.90;;;;;;5050012;28;20036;-63
2023/12/19 02:01:38;;;;;;;17.52;8.50;;;5.50;99.90;;;;;;5048157;28;20061;-62
2023/12/19 02:04:03;;;;;;;20.23;10.10;;;5.50;99.90;;;;;;5046095;28;20063;-62
2023/12/19 02:06:33;;;;;;;20.13;9.20;;;5.60;99.90;;;;;;5050214;28;20024;-60
2023/12/19 02:08:59;;;;;;;16.67;9.73;;;5.50;99.90;;;;;;5049192;28;20033;-61
2023/12/19 02:11:24;;;;;;;17.98;9.52;;;5.40;99.90;;;;;;5051326;28;20081;-61
2023/12/19 02:13:50;;;;;;;21.40;9.88;;;5.40;99.90;;;;;;5045315;28;20025;-60
2023/12/19 02:16:15;;;;;;;24.13;11.23;;;5.40;99.90;;;;;;5050499;28;20032;-59
2023/12/19 02:18:43;;;;;;;18.75;10.30;;;5.40;99.90;;;;;;5045223;28;20021;-61
2023/12/19 02:21:08;;;;;;;20.42;10.50;;;5.30;99.90;;;;;;5055063;28;20032;-62
2023/12/19 02:23:34;;;;;;;20.52;11.05;;;5.30;99.90;;;;;;5047467;28;20033;-60
2023/12/19 02:25:59;;;;;;;20.73;11.48;;;5.30;99.90;;;;;;5046832;28;20369;-62
2023/12/19 02:28:25;;;;;;;23.63;11.82;;;5.30;99.90;;;;;;5049754;28;20056;-61
2023/12/19 02:30:50;;;;;;;23.50;11.52;;;5.30;99.90;;;;;;5046894;28;20073;-60
2023/12/19 02:33:16;;;;;;;23.83;12.02;;;5.30;99.90;;;;;;5056162;28;20121;-61
2023/12/19 02:35:41;;;;;;;21.45;11.40;;;5.30;99.90;;;;;;5046167;28;20029;-62
2023/12/19 02:38:07;;;;;;;21.48;10.80;;;5.20;99.90;;;;;;5047263;28;20407;-63
2023/12/19 02:40:32;;;;;;;22.20;10.85;;;5.20;99.90;;;;;;5046977;28;20028;-61
2023/12/19 02:42:58;;;;;;;22.23;11.18;;;5.20;99.90;;;;;;5045134;28;20025;-62
2023/12/19 02:45:24;;;;;;;19.58;10.63;;;5.20;99.90;;;;;;5050634;28;20502;-61
2023/12/19 02:47:49;;;;;;;20.95;10.75;;;5.20;99.90;;;;;;5050951;28;20023;-60
2023/12/19 02:50:15;;;;;;;29.15;12.20;;;5.30;99.90;;;;;;5046494;28;20549;-63
2023/12/19 02:52:40;;;;;;;25.70;11.05;;;5.30;99.90;;;;;;5049361;28;20037;-62
2023/12/19 02:55:06;;;;;;;23.52;11.10;;;5.30;99.90;;;;;;5050538;28;20017;-60
2023/12/19 02:57:31;;;;;;;21.98;10.63;;;5.40;99.90;;;;;;5048138;28;20017;-59
2023/12/19 02:59:57;;;;;;;19.17;10.13;;;5.40;99.90;;;;;;5053329;28;20025;-61
2023/12/19 03:02:22;;;;;;;17.30;9.45;;;5.30;99.90;;;;;;5046013;28;20031;-61
2023/12/19 03:04:48;;;;;;;17.90;9.60;;;5.40;99.90;;;;;;5045484;28;20395;-59
2023/12/19 03:07:13;;;;;;;22.65;8.80;;;5.40;99.90;;;;;;5052425;28;20479;-62
2023/12/19 03:09:39;;;;;;;21.92;9.57;;;5.50;99.90;;;;;;5048207;28;20159;-63
2023/12/19 03:12:06;;;;;;;17.27;9.27;;;5.50;99.90;;;;;;5049909;28;20031;-60
2023/12/19 03:14:36;;;;;;;18.83;9.32;;;5.40;99.90;;;;;;5048255;28;20026;-59
2023/12/19 03:17:03;;;;;;;18.60;9.45;;;5.50;99.90;;;;;;5054037;28;20013;-61
2023/12/19 03:19:29;;;;;;;16.27;8.18;;;5.50;99.90;;;;;;5052604;28;20022;-60
2023/12/19 03:21:55;;;;;;;16.60;8.90;;;5.60;99.90;;;;;;5050906;28;20025;-61
2023/12/19 03:24:22;;;;;;;15.63;8.02;;;5.60;99.90;;;;;;5052254;28;20028;-62
2023/12/19 03:26:47;;;;;;;18.92;8.38;;;5.60;99.90;;;;;;5054828;28;20742;-59
2023/12/19 03:29:13;;;;;;;14.23;5.85;;;5.60;99.90;;;;;;5050993;28;20036;-61
2023/12/19 03:31:38;;;;;;;10.40;6.07;;;5.70;99.90;;;;;;5050256;28;20397;-61
2023/12/19 03:34:04;;;;;;;10.52;5.30;;;5.70;99.90;;;;;;5052123;28;20024;-60
2023/12/19 03:36:30;;;;;;;10.40;5.90;;;5.80;99.90;;;;;;5053514;28;20029;-62
2023/12/19 03:38:55;;;;;;;9.88;5.45;;;5.80;99.90;;;;;;5049810;28;20033;-58
2023/12/19 03:41:21;;;;;;;10.15;5.70;;;5.80;99.90;;;;;;5052371;28;20040;-61
2023/12/19 03:43:47;;;;;;;12.85;5.72;;;5.80;99.90;;;;;;5051578;28;20030;-61
2023/12/19 03:46:14;;;;;;;8.90;5.25;;;5.80;99.90;;;;;;5051712;28;20182;-60
2023/12/19 03:48:40;;;;;;;8.05;4.28;;;5.90;99.90;;;;;;5050029;28;20112;-61
2023/12/19 03:51:07;;;;;;;7.15;4.43;;;5.90;99.90;;;;;;5056286;28;20454;-61
2023/12/19 03:53:33;;;;;;;8.85;4.35;;;5.90;99.90;;;;;;5047895;28;20040;-61
2023/12/19 03:55:58;;;;;;;6.90;3.78;;;5.90;99.90;;;;;;5051368;28;20025;-62
2023/12/19 03:58:24;;;;;;;8.00;4.53;;;5.90;99.90;;;;;;5048487;28;20025;-62
2023/12/19 04:00:49;;;;;;;7.90;4.53;;;5.90;99.90;;;;;;5052341;28;20511;-61
2023/12/19 04:03:15;;;;;;;6.72;4.20;;;6.00;99.90;;;;;;5054589;28;20102;-61
2023/12/19 04:05:40;;;;;;;6.70;4.10;;;6.00;99.90;;;;;;5058030;28;20041;-61
2023/12/19 04:08:06;;;;;;;5.93;3.63;;;6.00;99.90;;;;;;5051146;28;20017;-62
2023/12/19 04:10:32;;;;;;;5.15;3.13;;;6.10;99.90;;;;;;5049832;28;20620;-61
2023/12/19 04:12:57;;;;;;;7.65;3.63;;;6.10;99.90;;;;;;5045688;28;20021;-63
2023/12/19 04:15:23;;;;;;;6.38;3.88;;;6.10;99.90;;;;;;5056453;28;20044;-63
2023/12/19 04:17:49;;;;;;;6.07;3.55;;;6.00;99.90;;;;;;5053152;28;20025;-62
2023/12/19 04:20:15;;;;;;;7.47;3.78;;;6.10;99.90;;;;;;5056016;28;20032;-63
2023/12/19 04:22:42;;;;;;;5.70;3.17;;;6.10;99.90;;;;;;5055194;28;20258;-62
2023/12/19 04:25:08;;;;;;;5.40;3.60;;;6.10;99.90;;;;;;5051632;28;20098;-63
2023/12/19 04:27:33;;;;;;;7.75;4.35;;;6.20;99.90;;;;;;5048946;28;20063;-62
2023/12/19 04:29:59;;;;;;;5.95;3.83;;;6.10;99.90;;;;;;5049066;28;20491;-62
2023/12/19 04:32:24;;;;;;;8.13;4.60;;;6.10;99.90;;;;;;5053898;28;20483;-63
2023/12/19 04:34:50;;;;;;;9.50;5.05;;;6.10;99.90;;;;;;5050803;28;20052;-61
2023/12/19 04:37:15;;;;;;;6.60;4.43;;;6.10;99.90;;;;;;5055883;28;20456;-63
2023/12/19 04:39:41;;;;;;;8.93;5.28;;;6.10;99.90;;;;;;5050655;28;20037;-63
2023/12/19 04:42:07;;;;;;;9.25;5.30;;;6.10;99.90;;;;;;5050207;28;20026;-64
2023/12/19 04:44:36;;;;;;;10.23;5.72;;;6.00;99.90;;;;;;5049136;28;20033;-62
2023/12/19 04:47:02;;;;;;;10.55;5.78;;;6.00;99.90;;;;;;5052921;28;20376;-62
2023/12/19 04:49:28;;;;;;;10.05;4.82;;;6.00;99.90;;;;;;5055323;28;20026;-63
2023/12/19 04:51:53;;;;;;;7.45;4.75;;;6.00;99.90;;;;;;5046629;28;20035;-62
2023/12/19 04:54:19;;;;;;;10.52;4.88;;;6.00;99.90;;;;;;5050916;28;20112;-62
2023/12/19 04:56:45;;;;;;;9.32;4.72;;;5.90;99.90;;;;;;5048320;28;20053;-62
2023/12/19 04:59:10;;;;;;;8.98;5.00;;;5.90;99.90;;;;;;5052951;28;20032;-62
2023/12/19 05:01:40;;;;;;;7.93;4.78;;;5.90;99.90;;;;;;5046015;28;20043;-62
2023/12/19 05:04:06;;;;;;;7.50;4.07;;;6.00;99.90;;;;;;5050222;28;20021;-64
2023/12/19 05:06:31;;;;;;;10.52;5.00;;;6.00;99.90;;;;;;5048614;28;20111;-63
2023/12/19 05:08:57;;;;;;;8.10;4.82;;;6.00;99.90;;;;;;5049013;28;20056;-63
2023/12/19 05:11:23;;;;;;;7.78;4.63;;;5.90;99.90;;;;;;5046124;28;20028;-63
2023/12/19 05:13:49;;;;;;;10.48;5.00;;;5.90;99.90;;;;;;5046849;28;20047;-61
2023/12/19 05:16:16;;;;;;;14.25;5.22;;;5.90;99.90;;;;;;5054630;28;20487;-62
2023/12/19 05:18:42;;;;;;;8.50;5.20;;;6.00;99.90;;;;;;5045790;28;20029;-62
2023/12/19 05:21:09;;;;;;;12.00;5.88;;;6.00;99.90;;;;;;5058698;28;20017;-63
2023/12/19 05:23:36;;;;;;;10.60;5.15;;;6.00;99.90;;;;;;5044095;28;20031;-63
2023/12/19 05:26:02;;;;;;;8.00;4.18;;;6.00;99.90;;;;;;5050658;28;20044;-63
2023/12/19 05:28:28;;;;;;;7.82;4.93;;;6.00;99.90;;;;;;5043015;28;20064;-63
2023/12/19 05:30:56;;;;;;;9.68;5.07;;;6.00;99.90;;;;;;5067754;28;20141;-64
2023/12/19 05:33:26;;;;;;;13.15;5.25;;;6.00;99.90;;;;;;5047421;28;20029;-63
2023/12/19 05:35:52;;;;;;;9.80;4.82;;;5.90;99.90;;;;;;5056924;28;20075;-63
2023/12/19 05:38:18;;;;;;;8.30;4.80;;;6.00;99.90;;;;;;5045848;28;20107;-63
2023/12/19 05:40:44;;;;;;;8.13;5.38;;;5.90;99.90;;;;;;5047691;28;20491;-62
2023/12/19 05:43:09;;;;;;;9.98;4.93;;;5.90;99.90;;;;;;5044409;28;20148;-63
2023/12/19 05:45:35;;;;;;;9.20;4.80;;;6.00;99.90;;;;;;5049218;28;20032;-63
2023/12/19 05:48:00;;;;;;;9.98;5.20;;;6.00;99.90;;;;;;5042611;28;20491;-60
2023/12/19 05:50:26;;;;;;;10.55;5.68;;;6.00;99.90;;;;;;5050850;28;20025;-62
2023/12/19 05:52:54;;;;;;;11.05;6.47;;;5.90;99.90;;;;;;5043479;28;20035;-62
2023/12/19 05:55:21;;;;;;;11.63;5.55;;;5.90;99.90;;;;;;5045825;28;20121;-62
2023/12/19 05:57:47;;;;;;;23.00;6.65;;;5.90;99.90;;;;;;5046023;28;20032;-63
2023/12/19 06:00:13;;;;;;;11.77;6.35;;;5.80;99.90;;;;;;5049231;28;20024;-62
2023/12/19 06:02:39;;;;;;;14.27;6.65;;;5.80;99.90;;;;;;5049905;28;20107;-62
2023/12/19 06:05:08;;;;;;;11.02;6.38;;;5.80;99.90;;;;;;5047575;28;20033;-61
2023/12/19 06:07:37;;;;;;;13.60;6.18;;;5.80;99.90;;;;;;5040678;28;20036;-64
2023/12/19 06:10:11;;;;;;;13.60;5.60;;;5.80;99.90;;;;;;5045976;28;20025;-62
2023/12/19 06:12:37;;;;;;;13.07;5.78;;;5.90;99.90;;;;;;5045503;28;20483;-62
2023/12/19 06:15:08;;;;;;;14.48;6.93;;;5.90;99.90;;;;;;5051525;28;20039;-61
2023/12/19 06:17:34;;;;;;;9.77;6.25;;;5.90;99.90;;;;;;5052033;28;20055;-63
2023/12/19 06:19:59;;;;;;;9.57;5.70;;;5.90;99.90;;;;;;5043351;28;20138;-62
2023/12/19 06:22:25;;;;;;;16.25;7.25;;;5.90;99.90;;;;;;5059042;28;20037;-63
2023/12/19 06:24:51;;;;;;;9.75;6.25;;;5.90;99.90;;;;;;5046590;28;20052;-61
2023/12/19 06:27:16;;;;;;;11.57;6.47;;;6.00;99.90;;;;;;5045496;28;20145;-63
2023/12/19 06:29:42;;;;;;;14.40;5.72;;;6.00;99.90;;;;;;5045580;28;20514;-59
2023/12/19 06:32:11;;;;;;;10.13;6.18;;;6.00;99.90;;;;;;5044866;28;20556;-60
2023/12/19 06:34:36;;;;;;;9.68;5.25;;;6.10;99.90;;;;;;5041261;28;20040;-61
2023/12/19 06:37:03;;;;;;;11.77;5.30;;;6.10;99.90;;;;;;5046699;28;20021;-60
2023/12/19 06:39:28;;;;;;;8.13;4.80;;;6.10;99.90;;;;;;5045886;28;20044;-60
2023/12/19 06:41:54;;;;;;;10.13;5.40;;;6.20;99.90;;;;;;5045642;28;20044;-61
2023/12/19 06:44:20;;;;;;;12.45;5.47;;;6.20;99.90;;;;;;5044155;28;20049;-62
2023/12/19 06:46:46;;;;;;;6.72;4.30;;;6.20;99.90;;;;;;5047331;28;20447;-61
2023/12/19 06:49:16;;;;;;;7.70;5.47;;;6.30;99.90;;;;;;5041614;28;20039;-62
2023/12/19 06:51:41;;;;;;;9.57;4.80;;;6.40;99.90;;;;;;5051097;28;20029;-59
2023/12/19 06:54:07;;;;;;;8.40;4.45;;;6.40;99.90;;;;;;5046402;28;20668;-61
2023/12/19 06:56:32;;;;;;;8.35;4.10;;;6.40;99.90;;;;;;5058416;28;20060;-59
2023/12/19 06:59:00;;;;;;;6.47;4.05;;;6.40;99.90;;;;;;5043979;28;20030;-59
2023/12/19 07:01:26;;;;;;;6.65;3.63;;;6.50;99.90;;;;;;5061565;28;20055;-60
2023/12/19 07:03:52;;;;;;;6.93;3.10;;;6.60;99.90;;;;;;5049610;28;20057;-60
2023/12/19 07:06:17;;;;;;;5.60;3.20;;;6.50;99.90;;;;;;5061817;28;20051;-61
2023/12/19 07:08:43;;;;;;;5.72;3.08;;;6.60;99.90;;;;;;5051751;28;20040;-61
2023/12/19 07:11:09;;;;;;;6.45;3.45;;;6.60;99.90;;;;;;5055166;28;20040;-60
2023/12/19 07:13:34;;;;;;;5.70;3.33;;;6.50;99.90;;;;;;5048698;28;20115;-59
2023/12/19 07:16:01;;;;;;;5.45;2.78;;;6.60;99.90;;;;;;5057457;28;20036;-58
2023/12/19 07:18:28;;;;;;;6.90;3.00;;;6.60;99.90;;;;;;5052685;28;20066;-61
2023/12/19 07:20:54;;;;;;;7.72;2.78;;;6.60;99.90;;;;;;5055423;28;20030;-62
2023/12/19 07:23:19;;;;;;;7.18;3.78;;;6.70;99.90;;;;;;5047886;28;20047;-63
2023/12/19 07:25:45;;;;;;;5.13;3.10;;;6.70;99.90;;;;;;5054694;28;20044;-60
2023/12/19 07:28:10;;;;;;;4.47;2.95;;;6.70;99.90;;;;;;5053512;28;20033;-60
2023/12/19 07:30:36;;;;;;;5.75;3.30;;;6.70;99.90;;;;;;5059909;28;20041;-61
2023/12/19 07:33:02;;;;;;;3.67;2.30;;;6.70;99.90;;;;;;5054566;28;20037;-61
2023/12/19 07:35:28;;;;;;;8.00;2.75;;;6.70;99.90;;;;;;5053329;28;20494;-62
2023/12/19 07:37:53;;;;;;;3.78;2.40;;;6.70;99.90;;;;;;5048933;28;20043;-62
2023/12/19 07:40:19;;;;;;;7.28;3.35;;;6.80;99.90;;;;;;5055035;28;20545;-62
2023/12/19 07:42:44;;;;;;;8.52;2.35;;;6.80;99.90;;;;;;5046748;28;20391;-63
2023/12/19 07:45:13;;;;;;;3.40;2.10;;;6.90;99.90;;;;;;5051343;28;20035;-62
2023/12/19 07:47:39;;;;;;;3.17;2.22;;;6.90;99.90;;;;;;5060988;28;20055;-63
2023/12/19 07:50:06;;;;;;;8.95;2.33;;;7.00;99.90;;;;;;5052773;28;20494;-61
2023/12/19 07:52:31;;;;;;;7.05;2.55;;;7.00;99.90;;;;;;5056093;28;20039;-62
2023/12/19 07:54:57;;;;;;;3.83;2.25;;;7.00;99.90;;;;;;5048629;28;20025;-61
2023/12/19 07:57:22;;;;;;;4.40;2.45;;;7.00;99.90;;;;;;5054557;28;20027;-63
2023/12/19 07:59:48;;;;;;;8.25;2.72;;;7.00;99.90;;;;;;5050536;28;20100;-63
2023/12/19 08:02:14;;;;;;;7.90;2.15;;;7.00;99.90;;;;;;5042555;28;21893;-63
2023/12/19 08:04:42;;;;;;;9.25;2.08;;;7.10;99.90;;;;;;5048185;28;20434;-63
2023/12/19 08:07:08;;;;;;;3.97;2.03;;;7.20;99.90;;;;;;5058148;28;20024;-63
2023/12/19 08:09:34;;;;;;;6.57;1.90;;;7.20;99.90;;;;;;5039621;28;20032;-64
2023/12/19 08:11:59;;;;;;;3.13;1.88;;;7.20;99.90;;;;;;5055905;28;20021;-63
2023/12/19 08:14:25;;;;;;;5.95;2.22;;;7.30;99.90;;;;;;5037606;28;20029;-63
2023/12/19 08:16:50;;;;;;;3.42;1.92;;;7.30;99.90;;;;;;5039713;28;20054;-64
2023/12/19 08:19:17;;;;;;;6.88;2.72;;;7.30;99.90;;;;;;5044988;28;20108;-61
2023/12/19 08:21:52;;;;;;;4.40;1.95;;;7.30;99.90;;;;;;5050256;28;20037;-63
2023/12/19 08:24:18;;;;;;;4.03;2.05;;;7.30;99.90;;;;;;5059214;28;20103;-62
2023/12/19 08:26:50;;;;;;;8.68;2.47;;;7.30;99.90;;;;;;5056002;28;20132;-63
2023/12/19 08:29:17;;;;;;;3.28;1.98;;;7.30;99.90;;;;;;5045504;28;20037;-63
2023/12/19 08:31:46;;;;;;;4.03;1.88;;;7.40;99.90;;;;;;5054393;28;20048;-63
2023/12/19 08:34:11;;;;;;;2.55;1.80;;;7.30;99.90;;;;;;5050928;28;20461;-61
2023/12/19 08:36:37;;;;;;;9.77;2.58;;;7.40;99.90;;;;;;5060648;28;20024;-62
2023/12/19 08:39:04;;;;;;;5.53;2.60;;;7.40;99.90;;;;;;5044790;28;20052;-64
2023/12/19 08:41:29;;;;;;;3.97;2.20;;;7.30;99.90;;;;;;5054661;28;20080;-61
2023/12/19 08:43:55;;;;;;;3.22;2.10;;;7.40;99.90;;;;;;5053887;28;20108;-61
2023/12/19 08:46:20;;;;;;;7.10;2.45;;;7.30;99.90;;;;;;5058536;28;20460;-61
2023/12/19 08:48:48;;;;;;;7.88;2.30;;;7.30;99.90;;;;;;5044686;28;20029;-62
2023/12/19 08:51:13;;;;;;;5.90;2.47;;;7.20;99.90;;;;;;5050546;28;20025;-63
2023/12/19 08:53:39;;;;;;;5.38;2.08;;;7.30;99.90;;;;;;5047765;28;20490;-62
2023/12/19 08:56:05;;;;;;;8.30;2.45;;;7.30;99.90;;;;;;5053538;28;20021;-61
2023/12/19 08:58:31;;;;;;;4.38;2.03;;;7.30;99.90;;;;;;5047130;28;20027;-64
2023/12/19 09:00:56;;;;;;;5.07;2.63;;;7.20;99.90;;;;;;5053504;28;20025;-62
2023/12/19 09:03:23;;;;;;;5.72;2.03;;;7.20;99.90;;;;;;5054768;28;20044;-62
2023/12/19 09:05:49;;;;;;;6.65;2.70;;;7.20;99.90;;;;;;5049801;28;20032;-63
2023/12/19 09:08:14;;;;;;;7.32;2.25;;;7.30;99.90;;;;;;5058040;28;20032;-62
2023/12/19 09:10:40;;;;;;;6.28;1.80;;;7.20;99.90;;;;;;5050073;28;20439;-64
2023/12/19 09:13:05;;;;;;;3.20;1.90;;;7.20;99.90;;;;;;5045283;28;20080;-71
2023/12/19 09:15:31;;;;;;;4.82;2.15;;;7.30;99.90;;;;;;5051518;28;20032;-61
2023/12/19 09:17:56;;;;;;;4.13;2.10;;;7.30;99.90;;;;;;5045588;28;20032;-64
2023/12/19 09:20:23;;;;;;;7.75;2.20;;;7.30;99.90;;;;;;5043777;28;20108;-63
2023/12/19 09:22:50;;;;;;;2.72;2.20;;;7.30;99.90;;;;;;5056719;28;20547;-62
2023/12/19 09:25:16;;;;;;;4.82;1.88;;;7.30;99.90;;;;;;5053168;28;20394;-63
2023/12/19 09:27:42;;;;;;;8.68;2.42;;;7.30;99.90;;;;;;5050045;28;20035;-61
2023/12/19 09:30:09;;;;;;;2.70;2.17;;;7.30;99.90;;;;;;5042468;28;20039;-62
2023/12/19 09:32:37;;;;;;;3.70;2.30;;;7.30;99.90;;;;;;5047799;28;20033;-64
2023/12/19 09:35:04;;;;;;;3.85;1.98;;;7.30;99.90;;;;;;5039075;28;20033;-62
2023/12/19 09:37:29;;;;;;;5.97;1.80;;;7.40;99.90;;;;;;5047175;28;20056;-62
2023/12/19 09:39:55;;;;;;;5.03;2.25;;;7.40;99.90;;;;;;5039927;28;20068;-61
2023/12/19 09:42:20;;;;;;;5.65;1.98;;;7.40;99.90;;;;;;5059921;28;20684;-62
2023/12/19 09:44:47;;;;;;;10.10;2.25;;;7.50;99.90;;;;;;5042858;28;20116;-61
2023/12/19 09:47:25;;;;;;;5.20;2.30;;;7.50;99.90;;;;;;5055091;28;20027;-61
2023/12/19 09:49:57;;;;;;;3.33;1.92;;;7.50;99.90;;;;;;5038304;28;20056;-62
2023/12/19 09:52:27;;;;;;;4.55;2.38;;;7.50;99.90;;;;;;5046798;28;20035;-61
2023/12/19 09:54:53;;;;;;;2.63;1.77;;;7.50;99.90;;;;;;5033731;28;20063;-64
2023/12/19 09:57:23;;;;;;;3.55;2.03;;;7.50;99.90;;;;;;5050636;28;20043;-61
2023/12/19 09:59:52;;;;;;;7.53;2.30;;;7.50;99.90;;;;;;5047394;28;20082;-62
2023/12/19 10:02:17;;;;;;;4.47;2.22;;;7.50;99.90;;;;;;5054567;28;20036;-62
2023/12/19 10:04:43;;;;;;;6.68;2.53;;;7.60;99.90;;;;;;5051006;28;20059;-60
2023/12/19 10:07:09;;;;;;;6.50;2.53;;;7.60;99.90;;;;;;5049501;28;20025;-63
2023/12/19 10:09:51;;;;;;;5.53;2.45;;;7.60;99.90;;;;;;5045933;28;20172;-63
2023/12/19 10:12:16;;;;;;;4.15;2.60;;;7.60;99.90;;;;;;5052021;28;20032;-62
2023/12/19 10:14:46;;;;;;;9.50;3.10;;;7.60;99.90;;;;;;5045945;28;20482;-63
2023/12/19 10:17:15;;;;;;;3.53;2.00;;;7.70;99.90;;;;;;5052748;28;20471;-60
2023/12/19 10:19:41;;;;;;;8.85;2.20;;;7.70;99.90;;;;;;5050502;28;20025;-62
2023/12/19 10:22:08;;;;;;;7.50;2.35;;;7.80;99.90;;;;;;5052103;28;20487;-62
2023/12/19 10:24:35;;;;;;;5.85;1.83;;;7.90;99.90;;;;;;5051618;28;20053;-63
2023/12/19 10:27:02;;;;;;;7.80;1.80;;;7.90;99.90;;;;;;5055497;28;20032;-63
2023/12/19 10:29:36;;;;;;;13.30;6.57;;;8.10;99.90;;;;;;5055654;28;20060;-64
2023/12/19 10:32:16;;;;;;;11.97;2.33;;;8.20;99.90;;;;;;5042678;28;20029;-62
2023/12/19 10:34:42;;;;;;;14.45;1.58;;;8.30;99.90;;;;;;5053073;28;20024;-63
2023/12/19 10:37:13;;;;;;;5.03;1.20;;;8.40;99.90;;;;;;5039498;28;20640;-62
2023/12/19 10:39:42;;;;;;;9.27;1.50;;;8.40;99.90;;;;;;5047548;28;20025;-62
2023/12/19 10:42:11;;;;;;;6.72;1.10;;;8.40;99.90;;;;;;5043451;28;20026;-63
2023/12/19 10:44:39;;;;;;;8.93;1.35;;;8.50;99.90;;;;;;5046733;28;20029;-63
2023/12/19 10:47:06;;;;;;;4.93;1.20;;;8.50;99.90;;;;;;5050533;28;20549;-63
2023/12/19 10:49:32;;;;;;;10.65;1.38;;;8.50;99.90;;;;;;5049754;28;20036;-63
2023/12/19 10:52:04;;;;;;;5.10;0.90;;;8.50;99.90;;;;;;5042349;28;20039;-61
2023/12/19 10:54:32;;;;;;;6.63;1.25;;;8.50;99.90;;;;;;5051218;28;20028;-64
2023/12/19 10:57:07;;;;;;;5.43;1.30;;;8.50;99.90;;;;;;5046447;28;20029;-62
2023/12/19 10:59:42;;;;;;;4.40;1.40;;;8.50;99.90;;;;;;5051577;28;20491;-63
2023/12/19 11:02:21;;;;;;;13.73;1.73;;;8.50;99.90;;;;;;5042873;28;20025;-60
2023/12/19 11:04:51;;;;;;;9.07;1.85;;;8.60;99.90;;;;;;5044658;28;20429;-61
2023/12/19 11:07:18;;;;;;;10.48;1.42;;;8.60;99.90;;;;;;5054731;28;20054;-59
2023/12/19 11:09:49;;;;;;;6.20;1.17;;;8.50;99.90;;;;;;5042300;28;20025;-60
2023/12/19 11:12:16;;;;;;;11.75;1.70;;;8.50;99.90;;;;;;5048069;28;20455;-61
2023/12/19 11:14:41;;;;;;;7.03;1.05;;;8.50;99.90;;;;;;5041750;28;20037;-60
2023/12/19 11:17:15;;;;;;;11.35;1.50;;;8.50;99.90;;;;;;5049433;28;20032;-62
2023/12/19 11:19:46;;;;;;;7.72;1.10;;;8.50;99.90;;;;;;5046228;28;20029;-62
2023/12/19 11:22:28;;;;;;;4.30;1.05;;;8.50;99.90;;;;;;5047811;28;20083;-60
2023/12/19 11:25:22;;;;;;;6.82;1.60;;;8.50;99.90;;;;;;5042151;28;20032;-62
2023/12/19 11:27:54;;;;;;;7.53;1.55;;;8.50;99.90;;;;;;5045018;28;20095;-61
2023/12/19 11:30:36;;;;;;;7.47;1.40;;;8.40;99.90;;;;;;5044070;28;20144;-60
2023/12/19 11:33:06;;;;;;;7.03;1.42;;;8.30;99.90;;;;;;5044164;28;20028;-62
2023/12/19 11:35:32;;;;;;;6.78;1.40;;;8.40;99.90;;;;;;5049937;28;20033;-61
2023/12/19 11:38:26;;;;;;;6.68;1.48;;;8.40;99.90;;;;;;5042016;28;20030;-63
2023/12/19 11:40:53;;;;;;;5.50;1.40;;;8.40;99.90;;;;;;5045829;28;20783;-59
2023/12/19 11:43:38;;;;;;;7.53;1.48;;;8.30;99.90;;;;;;5040936;28;20488;-61
2023/12/19 11:46:04;;;;;;;3.80;1.60;;;8.30;99.90;;;;;;5048587;28;20037;-63
2023/12/19 11:48:36;;;;;;;7.43;1.80;;;8.30;99.90;;;;;;5047109;28;20373;-61
2023/12/19 11:51:03;;;;;;;4.25;1.20;;;8.30;99.90;;;;;;5047578;28;20026;-60
2023/12/19 11:53:28;;;;;;;6.80;1.30;;;8.30;99.90;;;;;;5046968;28;20438;-59
2023/12/19 11:56:10;;;;;;;5.03;1.35;;;8.30;99.90;;;;;;5048203;28;20032;-60
2023/12/19 11:58:37;;;;;;;8.30;1.73;;;8.30;99.90;;;;;;5052528;28;20036;-61
2023/12/19 12:01:04;;;;;;;2.33;1.17;;;8.30;99.90;;;;;;5043159;28;20148;-61
2023/12/19 12:03:30;;;;;;;6.50;1.63;;;8.30;99.90;;;;;;5059175;28;20024;-60
2023/12/19 12:05:56;;;;;;;5.25;1.25;;;8.30;99.90;;;;;;5048698;28;20037;-61
2023/12/19 12:08:22;;;;;;;2.83;1.25;;;8.20;99.90;;;;;;5047498;28;20393;-62
2023/12/19 12:11:01;;;;;;;6.50;1.55;;;8.30;99.90;;;;;;5047207;28;20046;-60
2023/12/19 12:13:28;;;;;;;3.95;1.48;;;8.30;99.90;;;;;;5051178;28;20032;-60
2023/12/19 12:15:56;;;;;;;9.10;1.67;;;8.30;99.90;;;;;;5046182;28;20114;-59
2023/12/19 12:18:23;;;;;;;8.18;1.77;;;8.20;99.90;;;;;;5054253;28;20031;-60
2023/12/19 12:20:48;;;;;;;4.85;1.30;;;8.20;99.90;;;;;;5040897;28;20028;-61
2023/12/19 12:23:18;;;;;;;3.90;1.50;;;8.20;99.90;;;;;;5048134;28;20033;-58
2023/12/19 12:25:52;;;;;;;2.65;1.23;;;8.20;99.90;;;;;;5041908;28;20442;-59
2023/12/19 12:28:17;;;;;;;5.65;1.55;;;8.30;99.90;;;;;;5048963;28;20044;-59
2023/12/19 12:30:43;;;;;;;10.50;1.50;;;8.30;99.90;;;;;;5045774;28;20403;-62
2023/12/19 12:33:09;;;;;;;5.82;1.60;;;8.30;99.90;;;;;;5049784;28;20633;-60
2023/12/19 12:35:36;;;;;;;2.58;1.27;;;8.30;99.90;;;;;;5044856;28;20029;-60
2023/12/19 12:38:07;;;;;;;8.80;1.63;;;8.30;99.90;;;;;;5048751;28;20026;-61
2023/12/19 12:40:33;;;;;;;7.00;1.70;;;8.40;99.90;;;;;;5041312;28;20025;-61
2023/12/19 12:43:27;;;;;;;4.50;2.10;;;8.40;99.90;;;;;;5046765;28;20060;-61
2023/12/19 12:46:12;;;;;;;5.40;1.92;;;8.30;99.90;;;;;;5049526;28;20020;-61
2023/12/19 12:48:59;;;;;;;4.15;1.75;;;8.40;99.90;;;;;;5043367;28;20045;-61
2023/12/19 12:51:25;;;;;;;10.55;2.38;;;8.40;99.90;;;;;;5048554;28;20032;-62